Nassau/Lynden Pindling International Airport


MYNN 151000Z 11005KT 9999 FEW025 28/24 A2996


TAF MYNN 150925Z 1512/1612 12006KT 9999 SCT025 SCT060

 

Freeport/Grand Bahama International Airport


MYGF 150000Z 13003KT 9999 FEW025 29/25 A2999


TAF MYGF 150925Z 1512/1612 15005KT 9999 SCT025 SCT060

 

Providenciales International Airport


MBPV 151000Z 08005KT 9999 SCT012 27/24 Q1012


TAF MBPV 150925Z 1512/1612 09012KT 9999 SHRA SCT020 BKN060 BECMG 1518/1520 FEW020 SCT060

Close Menu